Terminal Aerodrome Forecast
Issued by NWS

Home | Current Version | Previous Version | Text Only | Print | Product List | Glossary On
Versions: 1 2 3 4 5 6 7 8 9 10 11 12
000
FTUS46 KOTX 221126
TAFCOE
TAF
KCOE 221126Z 2212/2312 14004KT P6SM SCT150 BKN200
     FM221600 33007KT P6SM SCT150 BKN200
     FM230300 02005KT P6SM SKC=

USA.gov is the U.S. government's official web portal to all federal, state and local government web resources and services.